sensor_id;sensor_type;location;lat;lon;timestamp;pressure;altitude;pressure_sealevel;temperature;humidity
20015;BME280;61787;42.022;23.078;2023-05-03T00:00:17;96960.97;;;15.30;60.73
20015;BME280;61787;42.022;23.078;2023-05-03T00:01:19;96963.56;;;15.23;60.99
20015;BME280;61787;42.022;23.078;2023-05-03T00:02:21;96959.78;;;15.27;60.67
20015;BME280;61787;42.022;23.078;2023-05-03T00:03:23;96963.75;;;15.33;60.45
20015;BME280;61787;42.022;23.078;2023-05-03T00:04:25;96963.22;;;15.47;59.85
20015;BME280;61787;42.022;23.078;2023-05-03T00:05:27;96951.78;;;15.54;59.58
20015;BME280;61787;42.022;23.078;2023-05-03T00:06:29;96952.97;;;15.56;59.13
20015;BME280;61787;42.022;23.078;2023-05-03T00:07:31;96952.97;;;15.56;59.29
20015;BME280;61787;42.022;23.078;2023-05-03T00:08:33;96942.66;;;15.43;58.77
20015;BME280;61787;42.022;23.078;2023-05-03T00:09:35;96940.09;;;15.27;58.64
20015;BME280;61787;42.022;23.078;2023-05-03T00:10:36;96948.50;;;15.22;59.92
20015;BME280;61787;42.022;23.078;2023-05-03T00:11:38;96944.94;;;15.18;60.71
20015;BME280;61787;42.022;23.078;2023-05-03T00:12:39;96946.41;;;14.92;61.44
20015;BME280;61787;42.022;23.078;2023-05-03T00:13:41;96940.72;;;14.78;61.00
20015;BME280;61787;42.022;23.078;2023-05-03T00:14:44;96938.47;;;14.80;60.92
20015;BME280;61787;42.022;23.078;2023-05-03T00:15:46;96936.75;;;14.91;60.95
20015;BME280;61787;42.022;23.078;2023-05-03T00:16:47;96923.06;;;15.04;61.50
20015;BME280;61787;42.022;23.078;2023-05-03T00:17:49;96925.41;;;15.05;61.62
20015;BME280;61787;42.022;23.078;2023-05-03T00:18:51;96927.63;;;15.00;61.29
20015;BME280;61787;42.022;23.078;2023-05-03T00:19:53;96928.34;;;14.97;60.81
20015;BME280;61787;42.022;23.078;2023-05-03T00:20:59;96926.63;;;15.08;61.56
20015;BME280;61787;42.022;23.078;2023-05-03T00:22:01;96923.19;;;15.11;61.70
20015;BME280;61787;42.022;23.078;2023-05-03T00:23:04;96920.19;;;15.16;61.50
20015;BME280;61787;42.022;23.078;2023-05-03T00:24:06;96916.47;;;15.24;60.92
20015;BME280;61787;42.022;23.078;2023-05-03T00:25:08;96910.31;;;15.23;61.71
20015;BME280;61787;42.022;23.078;2023-05-03T00:26:10;96912.53;;;15.18;60.95
20015;BME280;61787;42.022;23.078;2023-05-03T00:27:11;96907.81;;;15.15;61.08
20015;BME280;61787;42.022;23.078;2023-05-03T00:28:13;96898.09;;;15.10;61.51
20015;BME280;61787;42.022;23.078;2023-05-03T00:29:14;96907.59;;;15.01;62.64
20015;BME280;61787;42.022;23.078;2023-05-03T00:30:16;96904.47;;;14.99;61.88
20015;BME280;61787;42.022;23.078;2023-05-03T00:31:19;96898.34;;;15.02;61.91
20015;BME280;61787;42.022;23.078;2023-05-03T00:32:21;96899.25;;;15.09;61.89
20015;BME280;61787;42.022;23.078;2023-05-03T00:33:23;96896.13;;;15.07;62.21
20015;BME280;61787;42.022;23.078;2023-05-03T00:34:25;96886.78;;;15.01;62.77
20015;BME280;61787;42.022;23.078;2023-05-03T00:35:26;96894.09;;;15.01;63.37
20015;BME280;61787;42.022;23.078;2023-05-03T00:36:28;96884.72;;;14.94;63.74
20015;BME280;61787;42.022;23.078;2023-05-03T00:37:31;96886.56;;;14.90;63.19
20015;BME280;61787;42.022;23.078;2023-05-03T00:38:33;96880.50;;;14.74;63.39
20015;BME280;61787;42.022;23.078;2023-05-03T00:39:34;96878.31;;;14.61;63.74
20015;BME280;61787;42.022;23.078;2023-05-03T00:40:36;96880.09;;;14.53;64.47
20015;BME280;61787;42.022;23.078;2023-05-03T00:41:38;96888.06;;;14.46;64.49
20015;BME280;61787;42.022;23.078;2023-05-03T00:42:39;96889.47;;;14.40;64.89
20015;BME280;61787;42.022;23.078;2023-05-03T00:43:41;96882.31;;;14.32;66.07
20015;BME280;61787;42.022;23.078;2023-05-03T00:44:43;96893.00;;;14.25;65.83
20015;BME280;61787;42.022;23.078;2023-05-03T00:45:44;96887.44;;;14.18;65.83
20015;BME280;61787;42.022;23.078;2023-05-03T00:46:48;96884.25;;;14.12;65.98
20015;BME280;61787;42.022;23.078;2023-05-03T00:47:50;96887.56;;;14.05;66.59
20015;BME280;61787;42.022;23.078;2023-05-03T00:48:51;96892.81;;;13.98;66.61
20015;BME280;61787;42.022;23.078;2023-05-03T00:49:53;96890.06;;;13.95;67.19
20015;BME280;61787;42.022;23.078;2023-05-03T00:50:57;96889.94;;;13.91;66.63
20015;BME280;61787;42.022;23.078;2023-05-03T00:51:58;96885.28;;;13.88;65.89
20015;BME280;61787;42.022;23.078;2023-05-03T00:53:00;96881.28;;;13.82;66.21
20015;BME280;61787;42.022;23.078;2023-05-03T00:54:02;96876.63;;;13.79;66.65
20015;BME280;61787;42.022;23.078;2023-05-03T00:55:04;96881.91;;;13.76;67.04
20015;BME280;61787;42.022;23.078;2023-05-03T00:56:08;96877.56;;;13.71;67.62
20015;BME280;61787;42.022;23.078;2023-05-03T00:57:10;96878.44;;;13.59;67.72
20015;BME280;61787;42.022;23.078;2023-05-03T00:58:12;96879.88;;;13.53;68.35
20015;BME280;61787;42.022;23.078;2023-05-03T00:59:13;96877.53;;;13.52;68.41
20015;BME280;61787;42.022;23.078;2023-05-03T01:00:15;96882.91;;;13.52;68.66
20015;BME280;61787;42.022;23.078;2023-05-03T01:01:18;96883.78;;;13.56;68.79
20015;BME280;61787;42.022;23.078;2023-05-03T01:02:19;96882.56;;;13.53;68.92
20015;BME280;61787;42.022;23.078;2023-05-03T01:03:22;96886.31;;;13.49;69.47
20015;BME280;61787;42.022;23.078;2023-05-03T01:04:24;96881.28;;;13.47;69.46
20015;BME280;61787;42.022;23.078;2023-05-03T01:05:27;96877.34;;;13.45;69.18
20015;BME280;61787;42.022;23.078;2023-05-03T01:08:12;96890.81;;;13.45;69.80
20015;BME280;61787;42.022;23.078;2023-05-03T01:09:24;96885.88;;;13.47;69.72
20015;BME280;61787;42.022;23.078;2023-05-03T01:10:51;96894.22;;;13.42;70.01
20015;BME280;61787;42.022;23.078;2023-05-03T01:13:34;96887.00;;;13.46;69.61
20015;BME280;61787;42.022;23.078;2023-05-03T01:14:47;96891.25;;;13.47;70.07
20015;BME280;61787;42.022;23.078;2023-05-03T01:16:02;96891.19;;;13.43;69.88
20015;BME280;61787;42.022;23.078;2023-05-03T01:17:12;96890.22;;;13.36;70.58
20015;BME280;61787;42.022;23.078;2023-05-03T01:18:19;96892.72;;;13.29;71.06
20015;BME280;61787;42.022;23.078;2023-05-03T01:19:36;96897.69;;;13.27;71.21
20015;BME280;61787;42.022;23.078;2023-05-03T01:20:42;96899.69;;;13.30;70.77
20015;BME280;61787;42.022;23.078;2023-05-03T01:21:46;96902.81;;;13.32;70.88
20015;BME280;61787;42.022;23.078;2023-05-03T01:24:11;96910.44;;;13.45;70.02
20015;BME280;61787;42.022;23.078;2023-05-03T01:25:14;96911.94;;;13.43;70.07
20015;BME280;61787;42.022;23.078;2023-05-03T01:27:18;96916.88;;;13.41;70.52
20015;BME280;61787;42.022;23.078;2023-05-03T01:28:19;96904.13;;;13.38;71.14
20015;BME280;61787;42.022;23.078;2023-05-03T01:29:21;96896.22;;;13.29;69.72
20015;BME280;61787;42.022;23.078;2023-05-03T01:30:25;96893.78;;;13.24;69.64
20015;BME280;61787;42.022;23.078;2023-05-03T01:31:32;96897.50;;;13.19;70.11
20015;BME280;61787;42.022;23.078;2023-05-03T01:35:59;96888.88;;;12.98;67.29
20015;BME280;61787;42.022;23.078;2023-05-03T01:37:03;96889.81;;;12.90;66.30
20015;BME280;61787;42.022;23.078;2023-05-03T01:38:06;96888.25;;;12.89;66.56
20015;BME280;61787;42.022;23.078;2023-05-03T01:39:17;96878.28;;;12.90;65.79
20015;BME280;61787;42.022;23.078;2023-05-03T01:40:20;96876.28;;;12.87;65.57
20015;BME280;61787;42.022;23.078;2023-05-03T01:41:23;96882.44;;;12.87;65.23
20015;BME280;61787;42.022;23.078;2023-05-03T01:42:27;96883.91;;;12.85;65.93
20015;BME280;61787;42.022;23.078;2023-05-03T01:43:30;96888.09;;;12.82;65.11
20015;BME280;61787;42.022;23.078;2023-05-03T01:44:33;96891.91;;;12.81;64.49
20015;BME280;61787;42.022;23.078;2023-05-03T01:45:36;96902.75;;;12.85;64.55
20015;BME280;61787;42.022;23.078;2023-05-03T01:46:43;96899.72;;;12.86;63.41
20015;BME280;61787;42.022;23.078;2023-05-03T01:47:45;96893.22;;;12.87;62.69
20015;BME280;61787;42.022;23.078;2023-05-03T01:48:46;96892.31;;;12.83;63.33
20015;BME280;61787;42.022;23.078;2023-05-03T01:49:48;96884.25;;;12.83;63.88
20015;BME280;61787;42.022;23.078;2023-05-03T01:50:50;96884.50;;;12.78;63.60
20015;BME280;61787;42.022;23.078;2023-05-03T01:51:51;96892.94;;;12.76;63.78
20015;BME280;61787;42.022;23.078;2023-05-03T01:52:53;96889.22;;;12.81;63.17
20015;BME280;61787;42.022;23.078;2023-05-03T01:53:54;96884.88;;;12.76;62.67
20015;BME280;61787;42.022;23.078;2023-05-03T01:54:56;96890.84;;;12.70;61.49
20015;BME280;61787;42.022;23.078;2023-05-03T01:55:59;96893.00;;;12.64;63.00
20015;BME280;61787;42.022;23.078;2023-05-03T01:57:01;96896.81;;;12.63;63.21
20015;BME280;61787;42.022;23.078;2023-05-03T01:58:03;96894.56;;;12.65;62.22
20015;BME280;61787;42.022;23.078;2023-05-03T01:59:05;96880.31;;;12.65;62.54
20015;BME280;61787;42.022;23.078;2023-05-03T02:00:07;96875.38;;;12.67;62.73
20015;BME280;61787;42.022;23.078;2023-05-03T02:01:09;96870.69;;;12.64;62.59
20015;BME280;61787;42.022;23.078;2023-05-03T02:02:11;96876.75;;;12.61;62.91
20015;BME280;61787;42.022;23.078;2023-05-03T02:03:12;96871.38;;;12.61;62.96
20015;BME280;61787;42.022;23.078;2023-05-03T02:04:14;96867.47;;;12.58;62.62
20015;BME280;61787;42.022;23.078;2023-05-03T02:05:16;96869.72;;;12.56;62.67
20015;BME280;61787;42.022;23.078;2023-05-03T02:06:17;96868.94;;;12.56;62.73
20015;BME280;61787;42.022;23.078;2023-05-03T02:07:19;96874.19;;;12.52;62.37
20015;BME280;61787;42.022;23.078;2023-05-03T02:08:21;96885.66;;;12.49;63.24
20015;BME280;61787;42.022;23.078;2023-05-03T02:09:23;96877.94;;;12.48;62.65
20015;BME280;61787;42.022;23.078;2023-05-03T02:10:25;96881.16;;;12.53;63.29
20015;BME280;61787;42.022;23.078;2023-05-03T02:11:27;96880.72;;;12.51;62.43
20015;BME280;61787;42.022;23.078;2023-05-03T02:12:28;96874.81;;;12.46;62.52
20015;BME280;61787;42.022;23.078;2023-05-03T02:13:30;96884.88;;;12.49;62.56
20015;BME280;61787;42.022;23.078;2023-05-03T02:14:31;96881.06;;;12.50;62.43
20015;BME280;61787;42.022;23.078;2023-05-03T02:15:33;96868.75;;;12.49;61.57
20015;BME280;61787;42.022;23.078;2023-05-03T02:16:34;96872.53;;;12.48;61.41
20015;BME280;61787;42.022;23.078;2023-05-03T02:17:37;96872.91;;;12.46;61.67
20015;BME280;61787;42.022;23.078;2023-05-03T02:18:39;96874.81;;;12.46;61.56
20015;BME280;61787;42.022;23.078;2023-05-03T02:19:40;96872.00;;;12.42;61.73
20015;BME280;61787;42.022;23.078;2023-05-03T02:20:44;96872.47;;;12.44;61.83
20015;BME280;61787;42.022;23.078;2023-05-03T02:21:46;96867.16;;;12.48;61.43
20015;BME280;61787;42.022;23.078;2023-05-03T02:22:47;96867.88;;;12.45;60.21
20015;BME280;61787;42.022;23.078;2023-05-03T02:23:49;96870.97;;;12.47;60.91
20015;BME280;61787;42.022;23.078;2023-05-03T02:24:50;96876.72;;;12.45;61.84
20015;BME280;61787;42.022;23.078;2023-05-03T02:25:52;96872.13;;;12.46;60.99
20015;BME280;61787;42.022;23.078;2023-05-03T02:26:54;96870.97;;;12.47;61.35
20015;BME280;61787;42.022;23.078;2023-05-03T02:27:56;96877.06;;;12.44;61.23
20015;BME280;61787;42.022;23.078;2023-05-03T02:28:57;96875.25;;;12.48;61.87
20015;BME280;61787;42.022;23.078;2023-05-03T02:29:59;96877.69;;;12.53;62.06
20015;BME280;61787;42.022;23.078;2023-05-03T02:31:02;96872.75;;;12.55;61.39
20015;BME280;61787;42.022;23.078;2023-05-03T02:32:06;96869.59;;;12.53;61.13
20015;BME280;61787;42.022;23.078;2023-05-03T02:33:08;96866.59;;;12.54;61.74
20015;BME280;61787;42.022;23.078;2023-05-03T02:34:10;96865.34;;;12.52;61.70
20015;BME280;61787;42.022;23.078;2023-05-03T02:35:12;96872.53;;;12.48;62.08
20015;BME280;61787;42.022;23.078;2023-05-03T02:36:13;96872.53;;;12.48;62.21
20015;BME280;61787;42.022;23.078;2023-05-03T02:37:15;96874.91;;;12.49;61.95
20015;BME280;61787;42.022;23.078;2023-05-03T02:38:17;96884.00;;;12.45;62.37
20015;BME280;61787;42.022;23.078;2023-05-03T02:39:18;96880.19;;;12.46;62.47
20015;BME280;61787;42.022;23.078;2023-05-03T02:40:20;96879.16;;;12.50;62.47
20015;BME280;61787;42.022;23.078;2023-05-03T02:41:22;96882.63;;;12.51;61.93
20015;BME280;61787;42.022;23.078;2023-05-03T02:42:23;96882.63;;;12.51;62.26
20015;BME280;61787;42.022;23.078;2023-05-03T02:43:25;96883.50;;;12.55;62.45
20015;BME280;61787;42.022;23.078;2023-05-03T02:44:27;96890.47;;;12.56;61.93
20015;BME280;61787;42.022;23.078;2023-05-03T02:45:29;96886.75;;;12.60;62.19
20015;BME280;61787;42.022;23.078;2023-05-03T02:46:30;96879.88;;;12.63;61.68
20015;BME280;61787;42.022;23.078;2023-05-03T02:47:32;96885.94;;;12.60;61.38
20015;BME280;61787;42.022;23.078;2023-05-03T02:48:34;96886.28;;;12.58;61.20
20015;BME280;61787;42.022;23.078;2023-05-03T02:49:35;96884.38;;;12.59;61.62
20015;BME280;61787;42.022;23.078;2023-05-03T02:50:38;96888.19;;;12.58;61.19
20015;BME280;61787;42.022;23.078;2023-05-03T02:51:40;96890.22;;;12.61;61.10
20015;BME280;61787;42.022;23.078;2023-05-03T02:52:41;96890.22;;;12.61;61.09
20015;BME280;61787;42.022;23.078;2023-05-03T02:53:43;96892.19;;;12.64;61.43
20015;BME280;61787;42.022;23.078;2023-05-03T02:54:45;96891.25;;;12.56;62.05
20015;BME280;61787;42.022;23.078;2023-05-03T02:55:48;96883.31;;;12.48;61.53
20015;BME280;61787;42.022;23.078;2023-05-03T02:56:50;96886.94;;;12.39;61.64
20015;BME280;61787;42.022;23.078;2023-05-03T02:57:51;96889.16;;;12.37;62.61
20015;BME280;61787;42.022;23.078;2023-05-03T02:58:53;96899.50;;;12.35;62.62
20015;BME280;61787;42.022;23.078;2023-05-03T02:59:55;96913.50;;;12.41;62.50
20015;BME280;61787;42.022;23.078;2023-05-03T03:00:57;96908.44;;;12.39;62.38
20015;BME280;61787;42.022;23.078;2023-05-03T03:01:58;96911.56;;;12.42;62.89
20015;BME280;61787;42.022;23.078;2023-05-03T03:03:00;96914.69;;;12.44;62.71
20015;BME280;61787;42.022;23.078;2023-05-03T03:04:02;96920.88;;;12.44;63.00
20015;BME280;61787;42.022;23.078;2023-05-03T03:05:04;96931.53;;;12.41;62.91
20015;BME280;61787;42.022;23.078;2023-05-03T03:06:05;96937.41;;;12.30;63.29
20015;BME280;61787;42.022;23.078;2023-05-03T03:07:07;96944.31;;;12.31;63.34
20015;BME280;61787;42.022;23.078;2023-05-03T03:08:09;96940.31;;;12.25;63.17
20015;BME280;61787;42.022;23.078;2023-05-03T03:09:10;96941.84;;;12.26;63.02
20015;BME280;61787;42.022;23.078;2023-05-03T03:10:12;96940.75;;;12.27;63.40
20015;BME280;61787;42.022;23.078;2023-05-03T03:11:14;96946.66;;;12.33;63.08
20015;BME280;61787;42.022;23.078;2023-05-03T03:12:16;96952.03;;;12.33;63.11
20015;BME280;61787;42.022;23.078;2023-05-03T03:13:17;96961.00;;;12.37;63.73
20015;BME280;61787;42.022;23.078;2023-05-03T03:14:19;96968.72;;;12.38;63.56
20015;BME280;61787;42.022;23.078;2023-05-03T03:15:21;96959.97;;;12.42;63.56
20015;BME280;61787;42.022;23.078;2023-05-03T03:16:22;96967.03;;;12.46;63.37
20015;BME280;61787;42.022;23.078;2023-05-03T03:17:24;96978.31;;;12.52;63.30
20015;BME280;61787;42.022;23.078;2023-05-03T03:18:26;96985.16;;;12.61;63.01
20015;BME280;61787;42.022;23.078;2023-05-03T03:19:27;96987.13;;;12.76;62.99
20015;BME280;61787;42.022;23.078;2023-05-03T03:20:29;96989.84;;;12.92;62.71
20015;BME280;61787;42.022;23.078;2023-05-03T03:21:31;97001.16;;;12.98;62.43
20015;BME280;61787;42.022;23.078;2023-05-03T03:22:32;97007.06;;;13.03;62.37
20015;BME280;61787;42.022;23.078;2023-05-03T03:23:34;97011.44;;;13.08;62.79
20015;BME280;61787;42.022;23.078;2023-05-03T03:24:36;97015.69;;;13.09;62.81
20015;BME280;61787;42.022;23.078;2023-05-03T03:25:37;97023.22;;;13.03;61.49
20015;BME280;61787;42.022;23.078;2023-05-03T03:26:39;97025.47;;;13.01;61.72
20015;BME280;61787;42.022;23.078;2023-05-03T03:27:40;97037.34;;;13.12;61.99
20015;BME280;61787;42.022;23.078;2023-05-03T03:28:43;97022.75;;;13.13;61.19
20015;BME280;61787;42.022;23.078;2023-05-03T03:29:45;97030.16;;;13.16;60.05
20015;BME280;61787;42.022;23.078;2023-05-03T03:30:47;97042.50;;;13.05;59.89
20015;BME280;61787;42.022;23.078;2023-05-03T03:31:48;97038.00;;;13.09;60.35
20015;BME280;61787;42.022;23.078;2023-05-03T03:32:51;97029.91;;;13.21;60.02
20015;BME280;61787;42.022;23.078;2023-05-03T03:33:53;97019.75;;;13.31;59.38
20015;BME280;61787;42.022;23.078;2023-05-03T03:34:54;97031.75;;;13.33;59.50
20015;BME280;61787;42.022;23.078;2023-05-03T03:35:56;97019.41;;;13.32;59.73
20015;BME280;61787;42.022;23.078;2023-05-03T03:36:57;97024.09;;;13.35;59.93
20015;BME280;61787;42.022;23.078;2023-05-03T03:37:59;97031.25;;;13.43;59.89
20015;BME280;61787;42.022;23.078;2023-05-03T03:39:01;97030.22;;;13.48;59.83
20015;BME280;61787;42.022;23.078;2023-05-03T03:40:02;97026.16;;;13.54;59.96
20015;BME280;61787;42.022;23.078;2023-05-03T03:41:04;97024.75;;;13.60;59.74
20015;BME280;61787;42.022;23.078;2023-05-03T03:42:07;97028.31;;;13.64;59.86
20015;BME280;61787;42.022;23.078;2023-05-03T03:43:09;97027.38;;;13.72;59.02
20015;BME280;61787;42.022;23.078;2023-05-03T03:44:10;97029.78;;;13.77;58.96
20015;BME280;61787;42.022;23.078;2023-05-03T03:45:12;97029.09;;;13.80;59.01
20015;BME280;61787;42.022;23.078;2023-05-03T03:46:15;97030.66;;;13.81;58.13
20015;BME280;61787;42.022;23.078;2023-05-03T03:47:19;97037.19;;;13.80;57.05
20015;BME280;61787;42.022;23.078;2023-05-03T03:48:21;97031.53;;;13.85;57.12
20015;BME280;61787;42.022;23.078;2023-05-03T03:49:24;97035.44;;;13.88;57.11
20015;BME280;61787;42.022;23.078;2023-05-03T03:50:27;97034.75;;;13.91;57.24
20015;BME280;61787;42.022;23.078;2023-05-03T03:51:29;97033.53;;;13.88;57.84
20015;BME280;61787;42.022;23.078;2023-05-03T03:52:31;97032.31;;;13.86;57.58
20015;BME280;61787;42.022;23.078;2023-05-03T03:53:33;97035.38;;;13.84;56.53
20015;BME280;61787;42.022;23.078;2023-05-03T03:54:35;97037.44;;;13.75;57.75
20015;BME280;61787;42.022;23.078;2023-05-03T03:55:40;97044.41;;;13.76;57.54
20015;BME280;61787;42.022;23.078;2023-05-03T03:56:41;97036.75;;;13.78;58.12
20015;BME280;61787;42.022;23.078;2023-05-03T03:57:43;97034.94;;;13.82;58.98
20015;BME280;61787;42.022;23.078;2023-05-03T03:58:45;97047.28;;;13.83;60.21
20015;BME280;61787;42.022;23.078;2023-05-03T03:59:46;97056.97;;;13.41;58.41
20015;BME280;61787;42.022;23.078;2023-05-03T04:00:48;97053.97;;;13.02;60.50
20015;BME280;61787;42.022;23.078;2023-05-03T04:01:50;97062.97;;;12.94;61.44
20015;BME280;61787;42.022;23.078;2023-05-03T04:02:52;97062.06;;;12.90;61.81
20015;BME280;61787;42.022;23.078;2023-05-03T04:03:53;97059.84;;;12.92;62.77
20015;BME280;61787;42.022;23.078;2023-05-03T04:04:55;97064.31;;;12.88;65.81
20015;BME280;61787;42.022;23.078;2023-05-03T04:05:57;97061.22;;;12.74;67.28
20015;BME280;61787;42.022;23.078;2023-05-03T04:06:58;97072.78;;;12.62;65.61
20015;BME280;61787;42.022;23.078;2023-05-03T04:08:00;97073.16;;;12.61;67.07
20015;BME280;61787;42.022;23.078;2023-05-03T04:09:01;97075.94;;;12.64;66.94
20015;BME280;61787;42.022;23.078;2023-05-03T04:10:03;97068.63;;;12.77;69.71
20015;BME280;61787;42.022;23.078;2023-05-03T04:11:10;97076.16;;;12.71;70.03
20015;BME280;61787;42.022;23.078;2023-05-03T04:12:14;97070.66;;;12.68;73.02
20015;BME280;61787;42.022;23.078;2023-05-03T04:13:16;97070.31;;;12.69;75.97
20015;BME280;61787;42.022;23.078;2023-05-03T04:14:17;97074.34;;;12.75;79.36
20015;BME280;61787;42.022;23.078;2023-05-03T04:15:19;97073.41;;;12.83;81.07
20015;BME280;61787;42.022;23.078;2023-05-03T04:16:21;97069.28;;;12.86;82.99
20015;BME280;61787;42.022;23.078;2023-05-03T04:17:23;97070.38;;;12.85;84.01
20015;BME280;61787;42.022;23.078;2023-05-03T04:18:25;97070.38;;;12.85;85.28
20015;BME280;61787;42.022;23.078;2023-05-03T04:19:27;97069.06;;;12.79;86.31
20015;BME280;61787;42.022;23.078;2023-05-03T04:20:28;97077.59;;;12.81;87.10
20015;BME280;61787;42.022;23.078;2023-05-03T04:21:30;97074.00;;;12.77;87.95
20015;BME280;61787;42.022;23.078;2023-05-03T04:22:32;97071.75;;;12.79;87.91
20015;BME280;61787;42.022;23.078;2023-05-03T04:23:34;97077.34;;;12.86;88.70
20015;BME280;61787;42.022;23.078;2023-05-03T04:24:35;97079.81;;;12.91;88.71
20015;BME280;61787;42.022;23.078;2023-05-03T04:25:42;97077.53;;;12.93;86.83
20015;BME280;61787;42.022;23.078;2023-05-03T04:26:46;97083.63;;;12.78;84.51
20015;BME280;61787;42.022;23.078;2023-05-03T04:27:48;97087.22;;;12.82;86.01
20015;BME280;61787;42.022;23.078;2023-05-03T04:28:50;97087.88;;;12.91;86.55
20015;BME280;61787;42.022;23.078;2023-05-03T04:29:52;97089.38;;;13.04;86.09
20015;BME280;61787;42.022;23.078;2023-05-03T04:30:54;97098.13;;;13.13;86.36
20015;BME280;61787;42.022;23.078;2023-05-03T04:31:56;97090.72;;;13.22;86.73
20015;BME280;61787;42.022;23.078;2023-05-03T04:32:57;97092.03;;;13.29;86.91
20015;BME280;61787;42.022;23.078;2023-05-03T04:34:01;97094.59;;;13.37;87.15
20015;BME280;61787;42.022;23.078;2023-05-03T04:35:03;97096.25;;;13.42;87.26
20015;BME280;61787;42.022;23.078;2023-05-03T04:36:09;97094.00;;;13.44;87.43
20015;BME280;61787;42.022;23.078;2023-05-03T04:37:15;97094.50;;;13.49;87.47
20015;BME280;61787;42.022;23.078;2023-05-03T04:38:18;97096.19;;;13.54;87.85
20015;BME280;61787;42.022;23.078;2023-05-03T04:39:20;97093.91;;;13.56;87.52
20015;BME280;61787;42.022;23.078;2023-05-03T04:40:22;97090.09;;;13.57;87.38
20015;BME280;61787;42.022;23.078;2023-05-03T04:41:24;97087.13;;;13.46;87.36
20015;BME280;61787;42.022;23.078;2023-05-03T04:42:26;97096.25;;;13.42;87.87
20015;BME280;61787;42.022;23.078;2023-05-03T04:43:27;97089.91;;;13.50;87.84
20015;BME280;61787;42.022;23.078;2023-05-03T04:44:29;97085.31;;;13.50;87.90
20015;BME280;61787;42.022;23.078;2023-05-03T04:45:30;97077.09;;;13.59;87.72
20015;BME280;61787;42.022;23.078;2023-05-03T04:46:32;97073.16;;;13.56;88.79
20015;BME280;61787;42.022;23.078;2023-05-03T04:47:34;97077.34;;;13.54;88.55
20015;BME280;61787;42.022;23.078;2023-05-03T04:48:36;97072.28;;;13.24;88.94
20015;BME280;61787;42.022;23.078;2023-05-03T04:49:38;97059.78;;;13.16;91.15
20015;BME280;61787;42.022;23.078;2023-05-03T04:50:40;97066.13;;;13.24;90.44
20015;BME280;61787;42.022;23.078;2023-05-03T04:51:41;97065.63;;;13.34;90.82
20015;BME280;61787;42.022;23.078;2023-05-03T04:52:43;97065.03;;;13.41;89.76
20015;BME280;61787;42.022;23.078;2023-05-03T04:53:45;97058.97;;;13.44;89.55
20015;BME280;61787;42.022;23.078;2023-05-03T04:54:46;97051.31;;;13.46;89.30
20015;BME280;61787;42.022;23.078;2023-05-03T04:55:48;97057.16;;;13.48;89.50
20015;BME280;61787;42.022;23.078;2023-05-03T04:56:52;97053.34;;;13.49;89.50
20015;BME280;61787;42.022;23.078;2023-05-03T04:57:54;97044.56;;;13.52;90.63
20015;BME280;61787;42.022;23.078;2023-05-03T04:58:56;97042.31;;;13.54;90.35
20015;BME280;61787;42.022;23.078;2023-05-03T04:59:57;97033.28;;;13.62;90.78
20015;BME280;61787;42.022;23.078;2023-05-03T05:00:59;97025.19;;;13.62;90.83
20015;BME280;61787;42.022;23.078;2023-05-03T05:02:01;97023.09;;;13.55;92.32
20015;BME280;61787;42.022;23.078;2023-05-03T05:03:03;97021.28;;;13.44;93.42
20015;BME280;61787;42.022;23.078;2023-05-03T05:04:06;97018.22;;;13.45;93.34
20015;BME280;61787;42.022;23.078;2023-05-03T05:05:09;97013.09;;;13.56;93.11
20015;BME280;61787;42.022;23.078;2023-05-03T05:06:11;97013.97;;;13.60;93.01
20015;BME280;61787;42.022;23.078;2023-05-03T05:07:13;97010.31;;;13.68;92.14
20015;BME280;61787;42.022;23.078;2023-05-03T05:08:14;97007.28;;;13.70;91.51
20015;BME280;61787;42.022;23.078;2023-05-03T05:09:24;97009.34;;;13.76;91.12
20015;BME280;61787;42.022;23.078;2023-05-03T05:10:26;97014.75;;;13.76;91.21
20015;BME280;61787;42.022;23.078;2023-05-03T05:11:27;97022.56;;;13.81;91.12
20015;BME280;61787;42.022;23.078;2023-05-03T05:12:29;97030.78;;;13.85;90.95
20015;BME280;61787;42.022;23.078;2023-05-03T05:13:31;97029.97;;;13.84;91.15
20015;BME280;61787;42.022;23.078;2023-05-03T05:14:32;97044.25;;;13.85;90.57
20015;BME280;61787;42.022;23.078;2023-05-03T05:15:34;97047.03;;;13.88;91.24
20015;BME280;61787;42.022;23.078;2023-05-03T05:16:36;97056.31;;;13.75;94.09
20015;BME280;61787;42.022;23.078;2023-05-03T05:17:37;97060.50;;;13.73;94.85
20015;BME280;61787;42.022;23.078;2023-05-03T05:18:39;97053.44;;;13.68;94.38
20015;BME280;61787;42.022;23.078;2023-05-03T05:19:41;97049.25;;;13.71;94.32
20015;BME280;61787;42.022;23.078;2023-05-03T05:20:42;97046.56;;;13.71;94.45
20015;BME280;61787;42.022;23.078;2023-05-03T05:21:44;97042.94;;;13.79;92.72
20015;BME280;61787;42.022;23.078;2023-05-03T05:22:46;97046.84;;;13.81;91.51
20015;BME280;61787;42.022;23.078;2023-05-03T05:23:47;97045.00;;;13.85;91.16
20015;BME280;61787;42.022;23.078;2023-05-03T05:24:49;97050.50;;;13.73;88.25
20015;BME280;61787;42.022;23.078;2023-05-03T05:25:50;97046.22;;;13.72;88.53
20015;BME280;61787;42.022;23.078;2023-05-03T05:26:54;97046.94;;;13.85;88.41
20015;BME280;61787;42.022;23.078;2023-05-03T05:27:56;97045.72;;;13.98;88.39
20015;BME280;61787;42.022;23.078;2023-05-03T05:28:57;97057.81;;;13.88;90.39
20015;BME280;61787;42.022;23.078;2023-05-03T05:29:59;97069.03;;;13.75;85.72
20015;BME280;61787;42.022;23.078;2023-05-03T05:31:01;97068.84;;;13.68;88.88
20015;BME280;61787;42.022;23.078;2023-05-03T05:32:03;97073.97;;;13.73;91.17
20015;BME280;61787;42.022;23.078;2023-05-03T05:33:05;97069.63;;;13.68;89.76
20015;BME280;61787;42.022;23.078;2023-05-03T05:34:07;97068.84;;;13.68;90.04
20015;BME280;61787;42.022;23.078;2023-05-03T05:35:09;97066.59;;;13.70;87.62